Terminal Aerodrome Forecast
Issued by NWS Spokane, WA

Home | Current Version | Previous Version | Text Only | Print | Product List | Glossary On
Versions: 1 2 3 4 5 6 7 8 9 10 11 12 13 14 15 16 17 18 19 20 21
000
FTUS46 KOTX 261738
TAFGEG
TAF
KGEG 261738Z 2618/2718 23013KT P6SM SCT025 BKN050
     FM262200 22015G22KT P6SM -SHRA BKN050
     FM270400 22013G19KT P6SM SCT070
     FM271300 21012KT P6SM SCT015
     FM271500 20013KT P6SM BKN015=

USA.gov is the U.S. government's official web portal to all federal, state and local government web resources and services.